Station: Neuburg / Donau, ICAO: ETSN, Synop: Synop: 10853,
Koordinaten: 4843'00''N 01113'00''E, Hoehe: 380m, Entfernung: 14.03km
2018/02/22 06:20
ETSN 220620Z 03007KT 8000 BKN100 M04/M08 Q1016 BLU BLU TEMPO WHT


Station: Ingolstadt, ICAO: ETSI, Synop: Synop: 10860,
Koordinaten: 4843'00''N 01132'00''E, Hoehe: 367m, Entfernung: 14.03km
2018/02/22 06:20
ETSI 220620Z 06010KT 9999 FEW032 BKN100 M04/M08 Q1016 BLU BLU TEMPO BLU+


Station: Augsburg, ICAO: EDMA, Synop: Synop: 10852,
Koordinaten: 4826'00''N 01056'00''E, Hoehe: 461m, Entfernung: 40.17km
2018/02/22 06:50
EDMA 220650Z 04010KT 7000 OVC024 M05/M07 Q1015


Station: Munchen, ICAO: EDDM, Synop: Synop: 10866,
Koordinaten: 4821'00''N 01147'00''E, Hoehe: 453m, Entfernung: 44.55km
2018/02/22 06:50
EDDM 220650Z 04012KT 9999 OVC026 M03/M07 Q1015 NOSIG


Station: Fuerstenfeldbruck, ICAO: ETSF, Synop: Synop: 10858,
Koordinaten: 4812'00''N 01116'00''E, Hoehe: 519m, Entfernung: 50.18km
2007/10/09 05:44
ETSF 090544Z 19001KT 1500 R27/2300D BR FEW300 04/04 Q1024 BLACKAMB AMB BECMG YLO


Station: Erding, ICAO: ETSE, Synop: Synop: 10869,
Koordinaten: 4819'00''N 01157'00''E, Hoehe: 462m, Entfernung: 55.96km
2015/01/30 08:20
ETSE 300820Z 27013G23KT 1600 SHSNGS FEW006 BKN023 01/M01 Q0979 REGS YLO


mehr Wetter
WetterInfo - adds.pl 2.6.003 DL3EL © 2004-2017 [202624]